Time;durP1;ratioP1;P1;durP2;ratioP2;P2;SDS_P1;SDS_P2;PMS_P1;PMS_P2;Temp;Humidity;BMP_temperature;BMP_pressure;BME280_temperature;BME280_humidity;BME280_pressure;Samples;Min_cycle;Max_cycle;Signal;HPM_P1;HPM_P2
2022/12/21 00:00:40;;;;;;;26.83;23.95;;;;;;;10.29;100.00;100970.34;5129132;29;20039;-71
2022/12/21 00:03:12;;;;;;;27.23;23.58;;;;;;;10.31;100.00;100963.22;5134040;29;20023;-72
2022/12/21 00:05:43;;;;;;;28.65;24.42;;;;;;;10.31;100.00;100955.34;5132864;29;20067;-72
2022/12/21 00:08:14;;;;;;;30.02;24.48;;;;;;;10.32;100.00;100963.06;5130610;29;20034;-71
2022/12/21 00:10:46;;;;;;;27.95;23.40;;;;;;;10.31;100.00;100969.28;5131804;29;20747;-71
2022/12/21 00:13:17;;;;;;;26.60;23.77;;;;;;;10.28;100.00;100959.03;5130245;29;20043;-71
2022/12/21 00:16:03;;;;;;;27.92;24.42;;;;;;;10.40;100.00;100954.59;5129467;29;20042;-71
2022/12/21 00:18:35;;;;;;;32.00;23.75;;;;;;;10.27;100.00;100967.84;5130789;29;20024;-71
2022/12/21 00:21:18;;;;;;;27.52;23.95;;;;;;;10.32;100.00;100963.06;5130925;29;20043;-72
2022/12/21 00:23:51;;;;;;;33.20;24.60;;;;;;;10.22;100.00;100962.94;5129687;29;20051;-71
2022/12/21 00:26:23;;;;;;;;;;;;;;;10.81;100.00;100964.25;5130270;29;20027;-71
2022/12/21 00:28:55;;;;;;;27.83;24.17;;;;;;;10.28;100.00;100968.69;5130256;29;19921;-72
2022/12/21 00:31:29;;;;;;;27.70;23.30;;;;;;;10.27;100.00;100965.25;5126884;29;20772;-72
2022/12/21 00:34:01;;;;;;;31.48;24.92;;;;;;;10.20;100.00;100964.03;5130655;29;20690;-72
2022/12/21 00:36:33;;;;;;;28.65;24.45;;;;;;;10.16;100.00;100963.47;5130381;29;20043;-72
2022/12/21 00:39:04;;;;;;;28.33;25.20;;;;;;;10.19;100.00;100957.13;5128158;29;20039;-71
2022/12/21 00:41:35;;;;;;;31.00;24.98;;;;;;;10.17;100.00;100957.25;5131239;29;20051;-71
2022/12/21 00:44:07;;;;;;;28.92;24.90;;;;;;;10.20;100.00;100969.28;5131669;29;20413;-71
2022/12/21 00:46:38;;;;;;;27.15;24.17;;;;;;;10.14;100.00;100969.75;5122170;29;20516;-71
2022/12/21 00:49:10;;;;;;;30.25;26.55;;;;;;;10.13;100.00;100957.63;5125277;29;20024;-72
2022/12/21 00:51:41;;;;;;;33.55;26.52;;;;;;;10.08;100.00;100960.63;5114979;29;20059;-71
2022/12/21 00:54:13;;;;;;;31.52;27.23;;;;;;;10.12;100.00;100971.69;5130782;29;20110;-71
2022/12/21 00:56:44;;;;;;;34.95;28.90;;;;;;;10.13;100.00;100973.34;5130521;29;20083;-71
2022/12/21 00:59:15;;;;;;;30.75;27.45;;;;;;;10.14;100.00;100975.81;5129879;29;20393;-72
2022/12/21 01:01:46;;;;;;;35.88;28.40;;;;;;;10.14;100.00;100969.75;5131463;29;20031;-71
2022/12/21 01:04:18;;;;;;;32.83;27.45;;;;;;;10.13;100.00;100968.09;5116474;29;20062;-71
2022/12/21 01:06:49;;;;;;;35.50;28.08;;;;;;;10.14;100.00;100977.63;5128425;29;20039;-71
2022/12/21 01:09:20;;;;;;;33.53;29.52;;;;;;;10.14;100.00;100977.63;5133201;29;20063;-71
2022/12/21 01:11:51;;;;;;;33.42;28.48;;;;;;;10.14;100.00;100982.84;5131143;29;20039;-71
2022/12/21 01:14:23;;;;;;;39.38;29.80;;;;;;;10.15;100.00;100981.88;5126279;29;20031;-71
2022/12/21 01:16:54;;;;;;;31.25;27.42;;;;;;;10.16;100.00;100987.03;5131243;29;20496;-71
2022/12/21 01:19:25;;;;;;;32.13;27.23;;;;;;;10.16;100.00;100991.44;5130009;29;20039;-71
2022/12/21 01:21:56;;;;;;;34.85;27.98;;;;;;;10.15;100.00;100993.22;5128771;29;20020;-71
2022/12/21 01:24:28;;;;;;;34.25;28.58;;;;;;;10.15;100.00;100987.97;5131874;29;20060;-72
2022/12/21 01:26:59;;;;;;;36.28;29.27;;;;;;;10.17;100.00;100991.28;5131024;29;20144;-71
2022/12/21 01:29:30;;;;;;;36.25;27.55;;;;;;;10.16;100.00;100983.56;5133032;29;20024;-71
2022/12/21 01:32:02;;;;;;;32.58;28.65;;;;;;;10.15;100.00;100984.50;5127902;29;20035;-71
2022/12/21 01:34:33;;;;;;;33.53;27.30;;;;;;;10.14;100.00;100990.72;5131378;29;20036;-71
2022/12/21 01:37:04;;;;;;;33.05;27.95;;;;;;;10.10;100.00;100995.34;5129764;29;20622;-72
2022/12/21 01:39:36;;;;;;;36.35;29.08;;;;;;;10.11;100.00;101010.09;5131095;29;20035;-71
2022/12/21 01:42:11;;;;;;;38.88;29.40;;;;;;;10.16;100.00;101009.75;5131882;29;20052;-71
2022/12/21 01:45:03;;;;;;;40.15;29.80;;;;;;;10.14;100.00;101011.66;5130986;29;20063;-71
2022/12/21 01:47:41;;;;;;;38.78;28.08;;;;;;;10.15;100.00;101010.69;5127793;29;20039;-71
2022/12/21 01:50:18;;;;;;;36.40;29.40;;;;;;;10.20;100.00;101013.78;5131727;29;20031;-71
2022/12/21 01:52:51;;;;;;;38.35;29.42;;;;;;;10.03;100.00;101006.44;5132403;29;20043;-71
2022/12/21 01:55:23;;;;;;;35.88;28.80;;;;;;;10.05;100.00;101001.94;5133055;29;20023;-71
2022/12/21 01:57:55;;;;;;;37.53;30.08;;;;;;;10.02;100.00;101008.22;5135543;29;20031;-71
2022/12/21 02:00:27;;;;;;;38.85;29.73;;;;;;;9.97;100.00;100989.47;5136071;29;21358;-71
2022/12/21 02:03:03;;;;;;;35.15;28.27;;;;;;;10.05;100.00;100994.91;5134846;29;20030;-71
2022/12/21 02:05:43;;;;;;;36.80;29.52;;;;;;;10.13;100.00;100994.28;5130519;29;20098;-71
2022/12/21 02:08:15;;;;;;;37.25;29.38;;;;;;;10.01;100.00;100990.03;5132454;29;20322;-71
2022/12/21 02:10:47;;;;;;;39.33;28.73;;;;;;;10.02;100.00;100991.69;5127650;29;20647;-71
2022/12/21 02:13:18;;;;;;;37.13;30.67;;;;;;;10.03;100.00;100988.94;5133718;29;20075;-71
2022/12/21 02:15:58;;;;;;;36.05;29.40;;;;;;;10.11;100.00;100989.16;5114102;29;20102;-72
2022/12/21 02:18:53;;;;;;;35.92;28.52;;;;;;;10.22;100.00;100990.91;5135955;29;20031;-71
2022/12/21 02:21:43;;;;;;;36.22;28.45;;;;;;;10.19;100.00;100988.53;5133349;29;20066;-71
2022/12/21 02:24:23;;;;;;;41.90;28.83;;;;;;;9.98;100.00;100994.56;5133134;29;20044;-71
2022/12/21 02:27:35;;;;;;;36.03;28.10;;;;;;;10.22;100.00;100989.13;5135910;29;20039;-71
2022/12/21 02:30:12;;;;;;;39.95;28.50;;;;;;;10.05;100.00;100988.84;5134506;29;20023;-71
2022/12/21 02:33:00;;;;;;;38.90;30.65;;;;;;;10.06;100.00;100982.66;5130616;29;20114;-71
2022/12/21 02:35:40;;;;;;;40.22;30.13;;;;;;;10.07;100.00;100987.75;5116749;29;20118;-71
2022/12/21 02:38:32;;;;;;;37.95;29.80;;;;;;;10.10;100.00;100984.06;5133711;29;20091;-71
2022/12/21 02:41:16;;;;;;;42.10;29.25;;;;;;;10.04;100.00;100988.00;5132948;29;20058;-71
2022/12/21 02:44:15;;;;;;;;;;;;;;;10.48;100.00;100994.06;5135518;29;20052;-71
2022/12/21 02:47:27;;;;;;;41.50;29.80;;;;;;;10.08;100.00;100985.97;5132876;29;20320;-71
2022/12/21 02:50:12;;;;;;;37.58;29.17;;;;;;;9.91;100.00;100977.69;5125357;29;20047;-71
2022/12/21 02:52:55;;;;;;;37.53;29.20;;;;;;;10.02;100.00;100978.63;5132912;29;20055;-71
2022/12/21 02:55:27;;;;;;;37.50;30.33;;;;;;;9.89;100.00;100969.13;5134806;29;20024;-71
2022/12/21 02:58:14;;;;;;;38.67;30.92;;;;;;;10.09;100.00;100979.78;5131531;29;20035;-71
2022/12/21 03:01:04;;;;;;;42.40;30.77;;;;;;;10.03;100.00;100986.34;5132394;29;20031;-71
2022/12/21 03:03:53;;;;;;;40.45;30.35;;;;;;;10.01;100.00;100988.25;5132898;29;20035;-71
2022/12/21 03:06:44;;;;;;;46.05;31.30;;;;;;;10.11;100.00;100980.47;5133824;29;20058;-71
2022/12/21 03:09:43;;;;;;;43.92;31.40;;;;;;;10.10;100.00;100976.19;5086301;29;20074;-71
2022/12/21 03:12:14;;;;;;;42.65;32.58;;;;;;;9.87;100.00;100970.19;5128314;29;20099;-71
2022/12/21 03:15:02;;;;;;;49.33;32.23;;;;;;;9.97;100.00;100969.34;5129556;29;20441;-71
2022/12/21 03:18:09;;;;;;;49.22;33.95;;;;;;;10.07;100.00;100972.03;5132337;29;20318;-71
2022/12/21 03:20:59;;;;;;;42.25;32.40;;;;;;;9.94;100.00;100966.97;5129565;29;20024;-71
2022/12/21 03:24:03;;;;;;;45.47;33.13;;;;;;;10.13;100.00;100965.50;5134808;29;20035;-71
2022/12/21 03:26:42;;;;;;;40.05;31.17;;;;;;;9.93;100.00;100959.25;5132417;29;20047;-71
2022/12/21 03:29:19;;;;;;;38.50;30.00;;;;;;;9.88;100.00;100964.84;5132439;29;20478;-71
2022/12/21 03:31:56;;;;;;;42.35;32.03;;;;;;;9.86;100.00;100950.22;5132515;29;20034;-71
2022/12/21 03:34:33;;;;;;;47.15;32.55;;;;;;;9.87;100.00;100960.56;5131848;29;20039;-71
2022/12/21 03:37:19;;;;;;;45.30;31.10;;;;;;;9.86;100.00;100972.00;5134184;29;20104;-71
2022/12/21 03:39:58;;;;;;;46.28;31.63;;;;;;;9.82;100.00;100964.50;5131020;29;20115;-71
2022/12/21 03:42:34;;;;;;;42.88;32.08;;;;;;;9.84;100.00;100976.50;5128815;29;20059;-71
2022/12/21 03:45:09;;;;;;;38.88;30.52;;;;;;;9.83;100.00;100961.75;5134557;29;20051;-71
2022/12/21 03:47:58;;;;;;;39.97;30.92;;;;;;;9.90;100.00;100964.72;5132916;29;20043;-71
2022/12/21 03:50:36;;;;;;;46.08;31.00;;;;;;;9.79;100.00;100960.34;5130766;29;20556;-70
2022/12/21 03:53:32;;;;;;;38.50;29.40;;;;;;;9.94;100.00;100960.91;5133480;29;20036;-71
2022/12/21 03:56:07;;;;;;;43.45;30.92;;;;;;;9.81;100.00;100952.38;5132327;29;20616;-71
2022/12/21 03:58:39;;;;;;;39.60;30.85;;;;;;;9.79;100.00;100968.19;5132845;29;20035;-71
2022/12/21 04:01:13;;;;;;;38.22;29.92;;;;;;;9.78;100.00;100965.72;5132517;29;20034;-71
2022/12/21 04:03:50;;;;;;;38.42;29.60;;;;;;;9.79;100.00;100965.56;5133815;29;20042;-71
2022/12/21 04:06:28;;;;;;;37.15;28.27;;;;;;;9.76;100.00;100965.81;5132172;29;20099;-71
2022/12/21 04:09:02;;;;;;;33.70;26.88;;;;;;;9.69;100.00;100951.56;5131112;29;20111;-70
2022/12/21 04:14:26;;;;;;;34.35;25.02;;;;;;;9.62;100.00;100946.00;5133019;29;20032;-71
2022/12/21 04:16:58;;;;;;;30.80;24.65;;;;;;;9.61;100.00;100941.69;5132161;29;20031;-70
2022/12/21 04:28:09;;;;;;;29.13;22.05;;;;;;;9.56;100.00;100959.56;5133384;29;20027;-71
2022/12/21 04:30:42;;;;;;;26.75;21.35;;;;;;;9.45;100.00;100942.09;5131489;29;20500;-71
2022/12/21 04:33:16;;;;;;;28.67;20.83;;;;;;;9.54;100.00;100958.00;5132856;29;20035;-71
2022/12/21 04:38:43;;;;;;;28.80;20.95;;;;;;;9.55;100.00;100944.00;5131145;29;20039;-71
2022/12/21 04:41:15;;;;;;;26.20;19.08;;;;;;;9.46;100.00;100943.75;5131598;29;20061;-70
2022/12/21 04:43:46;;;;;;;25.40;19.48;;;;;;;9.48;100.00;100944.47;5131541;29;20051;-70
2022/12/21 04:46:17;;;;;;;23.92;18.88;;;;;;;9.47;100.00;100929.72;5133604;29;20059;-71
2022/12/21 04:48:49;;;;;;;25.30;18.90;;;;;;;9.46;100.00;100942.91;5131150;29;20042;-71
2022/12/21 04:51:23;;;;;;;26.15;18.33;;;;;;;9.47;100.00;100945.41;5133469;29;20501;-71
2022/12/21 04:53:55;;;;;;;25.17;18.02;;;;;;;9.41;100.00;100945.06;5131896;29;20035;-71
2022/12/21 04:56:26;;;;;;;23.50;18.08;;;;;;;9.41;100.00;100943.28;5129690;29;20032;-71
2022/12/21 04:58:58;;;;;;;24.98;17.88;;;;;;;9.45;100.00;100942.09;5131196;29;20050;-71
2022/12/21 05:01:29;;;;;;;26.00;18.70;;;;;;;9.44;100.00;100947.44;5132595;29;20035;-70
2022/12/21 05:04:00;;;;;;;22.85;17.33;;;;;;;9.43;100.00;100936.16;5132915;29;20156;-71
2022/12/21 05:06:32;;;;;;;21.60;17.35;;;;;;;9.42;100.00;100938.88;5130884;29;20085;-71
2022/12/21 05:09:03;;;;;;;31.25;18.30;;;;;;;9.39;100.00;100945.16;5130733;29;20035;-71
2022/12/21 05:11:34;;;;;;;25.30;17.33;;;;;;;9.37;100.00;100947.09;5112822;29;20038;-70
2022/12/21 05:14:06;;;;;;;27.02;17.42;;;;;;;9.29;100.00;100944.25;5129550;29;20061;-71
2022/12/21 05:16:40;;;;;;;24.90;17.08;;;;;;;9.32;100.00;100951.84;5132212;29;20079;-70
2022/12/21 05:19:12;;;;;;;24.73;16.63;;;;;;;9.27;100.00;100949.56;5131411;29;20318;-71
2022/12/21 05:21:45;;;;;;;23.07;17.20;;;;;;;9.28;100.00;100942.59;5132389;29;20071;-71
2022/12/21 05:24:16;;;;;;;21.92;17.13;;;;;;;9.25;100.00;100945.44;5132422;29;20024;-71
2022/12/21 05:26:47;;;;;;;22.70;16.33;;;;;;;9.25;100.00;100934.97;5133775;29;20405;-71
2022/12/21 05:29:18;;;;;;;21.27;15.88;;;;;;;9.23;100.00;100932.47;5133669;29;20425;-71
2022/12/21 05:31:50;;;;;;;19.88;15.32;;;;;;;9.20;100.00;100930.06;5135367;29;20031;-71
2022/12/21 05:34:21;;;;;;;21.10;15.27;;;;;;;9.22;100.00;100935.22;5136455;29;20075;-71
2022/12/21 05:36:52;;;;;;;20.33;15.20;;;;;;;9.21;100.00;100936.16;5135340;29;20063;-71
2022/12/21 05:39:24;;;;;;;19.45;15.25;;;;;;;9.20;100.00;100939.72;5135983;29;20032;-71
2022/12/21 05:41:55;;;;;;;19.75;14.90;;;;;;;9.19;100.00;100938.06;5136190;29;20027;-71
2022/12/21 05:44:27;;;;;;;19.25;14.65;;;;;;;9.15;100.00;100932.22;5134699;29;20055;-71
2022/12/21 05:46:58;;;;;;;18.75;13.88;;;;;;;9.15;100.00;100936.63;5134208;29;20059;-71
2022/12/21 05:49:29;;;;;;;19.38;15.23;;;;;;;9.15;100.00;100940.06;5136091;29;20032;-71
2022/12/21 05:52:01;;;;;;;19.75;13.63;;;;;;;9.12;100.00;100942.09;5136849;29;20030;-71
2022/12/21 05:54:32;;;;;;;18.98;13.60;;;;;;;9.08;100.00;100932.81;5135293;29;20031;-70
2022/12/21 05:57:05;;;;;;;26.02;14.13;;;;;;;9.13;100.00;100926.31;5135150;29;20040;-71
2022/12/21 05:59:36;;;;;;;21.55;14.48;;;;;;;9.09;100.00;100929.25;5135889;29;20032;-71
2022/12/21 06:02:07;;;;;;;18.52;13.77;;;;;;;9.07;100.00;100932.00;5134364;29;20039;-71
2022/12/21 06:04:39;;;;;;;17.98;13.57;;;;;;;9.02;100.00;100924.50;5131859;29;20038;-71
2022/12/21 06:07:10;;;;;;;16.40;13.45;;;;;;;9.03;100.00;100925.34;5133034;29;20043;-71
2022/12/21 06:09:41;;;;;;;17.20;12.73;;;;;;;9.04;100.00;100923.56;5135442;29;20373;-71
2022/12/21 06:12:13;;;;;;;19.38;12.52;;;;;;;8.97;100.00;100913.56;5115160;29;20035;-72
2022/12/21 06:14:44;;;;;;;18.40;11.98;;;;;;;9.01;100.00;100922.81;5131244;29;20060;-71
2022/12/21 06:17:15;;;;;;;21.15;13.25;;;;;;;9.00;100.00;100918.56;5131969;29;20084;-71
2022/12/21 06:19:47;;;;;;;21.60;14.20;;;;;;;8.97;100.00;100917.97;5130067;29;20239;-70
2022/12/21 06:22:18;;;;;;;19.50;13.82;;;;;;;8.96;100.00;100917.13;5131149;29;20038;-70
2022/12/21 06:24:50;;;;;;;22.30;13.32;;;;;;;8.95;100.00;100923.31;5127968;29;20413;-71
2022/12/21 06:27:21;;;;;;;19.02;13.15;;;;;;;8.94;100.00;100921.66;5130128;29;20544;-71
2022/12/21 06:29:52;;;;;;;15.93;11.02;;;;;;;8.91;100.00;100926.28;5134853;29;20032;-70
2022/12/21 06:32:23;;;;;;;17.52;9.20;;;;;;;8.88;100.00;100929.13;5135092;29;20441;-71
2022/12/21 06:34:55;;;;;;;16.45;9.38;;;;;;;8.86;100.00;100926.63;5134314;29;20485;-71
2022/12/21 06:37:27;;;;;;;15.48;9.45;;;;;;;8.83;100.00;100929.50;5135743;29;20478;-71
2022/12/21 06:39:58;;;;;;;13.18;9.05;;;;;;;8.82;100.00;100930.41;5131947;29;20039;-71
2022/12/21 06:42:29;;;;;;;13.18;8.50;;;;;;;8.82;100.00;100922.56;5136381;29;20086;-70
2022/12/21 06:45:00;;;;;;;16.05;8.52;;;;;;;8.83;100.00;100934.72;5133851;29;20070;-71
2022/12/21 06:47:32;;;;;;;13.10;7.65;;;;;;;8.84;100.00;100935.53;5134279;29;20024;-70
2022/12/21 06:50:04;;;;;;;11.02;7.00;;;;;;;8.81;100.00;100928.75;5136007;29;20495;-70
2022/12/21 06:52:35;;;;;;;14.45;7.53;;;;;;;8.79;100.00;100933.28;5135555;29;20035;-70
2022/12/21 06:55:07;;;;;;;10.40;7.30;;;;;;;8.78;100.00;100931.59;5132536;29;20890;-72
2022/12/21 06:57:38;;;;;;;13.13;7.15;;;;;;;8.76;100.00;100941.34;5132708;29;20038;-71
2022/12/21 07:00:10;;;;;;;12.13;6.22;;;;;;;8.75;100.00;100952.72;5134146;29;20047;-71
2022/12/21 07:02:42;;;;;;;12.57;6.78;;;;;;;8.73;100.00;100957.25;5132078;29;20091;-71
2022/12/21 07:05:13;;;;;;;9.07;6.25;;;;;;;8.69;100.00;100953.19;5131873;29;20036;-71
2022/12/21 07:07:44;;;;;;;13.38;6.75;;;;;;;8.71;100.00;100953.91;5130399;29;20438;-71
2022/12/21 07:10:16;;;;;;;12.95;6.65;;;;;;;8.71;100.00;100940.84;5125223;29;20039;-71
2022/12/21 07:12:47;;;;;;;13.88;5.80;;;;;;;8.67;100.00;100942.84;5125351;29;20118;-71
2022/12/21 07:15:18;;;;;;;11.20;6.10;;;;;;;8.67;100.00;100949.84;5132177;29;20036;-71
2022/12/21 07:17:49;;;;;;;15.13;7.10;;;;;;;8.65;100.00;100949.16;5132617;29;20023;-71
2022/12/21 07:20:21;;;;;;;12.00;6.00;;;;;;;8.64;100.00;100952.72;5110301;29;20048;-71
2022/12/21 07:22:52;;;;;;;11.48;6.10;;;;;;;8.61;100.00;100950.34;5128532;29;20032;-71
2022/12/21 07:25:23;;;;;;;14.73;6.03;;;;;;;8.59;100.00;100955.66;5117884;29;20019;-71
2022/12/21 07:27:56;;;;;;;10.73;6.10;;;;;;;8.58;100.00;100947.94;5129868;29;20038;-71
2022/12/21 07:30:28;;;;;;;10.60;6.13;;;;;;;8.58;100.00;100955.78;5133542;29;20067;-71
2022/12/21 07:32:59;;;;;;;13.65;6.20;;;;;;;8.50;100.00;100951.97;5121200;29;20123;-71
2022/12/21 07:35:30;;;;;;;13.77;6.35;;;;;;;8.55;100.00;100961.22;5133343;29;20043;-71
2022/12/21 07:38:02;;;;;;;11.65;6.07;;;;;;;8.52;100.00;100978.81;5130363;29;20059;-71
2022/12/21 07:40:34;;;;;;;9.48;5.57;;;;;;;8.51;100.00;100984.94;5112660;29;20038;-71
2022/12/21 07:43:09;;;;;;;15.48;6.20;;;;;;;8.55;100.00;100987.34;5130971;29;20047;-71
2022/12/21 07:45:40;;;;;;;10.25;5.75;;;;;;;8.49;100.00;100994.69;5132646;29;20131;-71
2022/12/21 07:48:12;;;;;;;13.63;6.60;;;;;;;8.51;100.00;100997.19;5128546;29;20027;-71
2022/12/21 07:50:46;;;;;;;10.00;6.85;;;;;;;8.53;100.00;101006.56;5125391;29;20031;-71
2022/12/21 07:53:18;;;;;;;13.65;6.25;;;;;;;8.45;100.00;101006.31;5130061;29;20313;-72
2022/12/21 07:55:49;;;;;;;11.27;5.97;;;;;;;8.43;100.00;101002.13;5120855;29;20527;-71
2022/12/21 07:58:21;;;;;;;13.00;6.00;;;;;;;8.49;100.00;101012.97;5128515;29;20036;-71
2022/12/21 08:00:52;;;;;;;11.38;6.28;;;;;;;8.51;100.00;101015.44;5131832;29;20509;-71
2022/12/21 08:03:23;;;;;;;10.85;6.10;;;;;;;8.49;100.00;101014.75;5131255;29;20474;-71
2022/12/21 08:05:54;;;;;;;9.82;6.63;;;;;;;8.50;100.00;101014.63;5127643;29;20568;-72
2022/12/21 08:08:26;;;;;;;13.80;6.82;;;;;;;8.48;100.00;101005.22;5130173;29;20542;-71
2022/12/21 08:10:57;;;;;;;15.77;7.38;;;;;;;8.48;100.00;101003.44;5128114;29;20378;-71
2022/12/21 08:13:29;;;;;;;14.18;7.32;;;;;;;8.49;100.00;100993.88;5131123;29;20027;-72
2022/12/21 08:16:02;;;;;;;17.17;7.40;;;;;;;8.48;100.00;100990.38;5131108;29;20033;-71
2022/12/21 08:18:33;;;;;;;;;;;;;;;9.02;100.00;100997.69;5129183;29;20212;-71
2022/12/21 08:21:05;;;;;;;14.73;7.80;;;;;;;8.55;100.00;101000.41;5132388;29;19938;-71
2022/12/21 08:23:37;;;;;;;17.00;8.10;;;;;;;8.50;100.00;101009.41;5130576;29;20352;-71
2022/12/21 08:26:10;;;;;;;14.70;7.78;;;;;;;8.57;100.00;101025.47;5132155;29;20035;-71
2022/12/21 08:28:43;;;;;;;17.20;8.70;;;;;;;8.55;100.00;101008.22;5131087;29;20095;-71
2022/12/21 08:31:17;;;;;;;18.50;8.85;;;;;;;8.61;100.00;101005.19;5130007;29;20027;-71
2022/12/21 08:33:48;;;;;;;16.95;9.70;;;;;;;8.59;100.00;101015.72;5129009;29;20039;-71
2022/12/21 08:36:22;;;;;;;18.60;9.65;;;;;;;8.62;100.00;101002.44;5129421;29;20035;-71
2022/12/21 08:38:56;;;;;;;17.65;9.65;;;;;;;8.61;100.00;101010.41;5129879;29;20042;-71
2022/12/21 08:41:27;;;;;;;19.52;10.07;;;;;;;8.64;100.00;101007.56;5128291;29;20099;-71
2022/12/21 08:43:58;;;;;;;21.20;10.02;;;;;;;8.66;100.00;101005.66;5134076;29;20067;-71
2022/12/21 08:46:29;;;;;;;19.13;11.05;;;;;;;8.68;100.00;101009.84;5132758;29;20043;-72
2022/12/21 08:49:01;;;;;;;23.17;10.57;;;;;;;8.71;100.00;101011.38;5129092;29;20036;-71
2022/12/21 08:51:32;;;;;;;23.40;11.45;;;;;;;8.66;100.00;101006.50;5132801;29;20027;-71
2022/12/21 08:54:07;;;;;;;22.05;11.77;;;;;;;8.78;100.00;101016.03;5132620;29;20460;-71
2022/12/21 08:56:39;;;;;;;21.90;12.48;;;;;;;8.74;100.00;101014.59;5129462;29;20409;-71
2022/12/21 08:59:10;;;;;;;21.05;12.95;;;;;;;8.76;100.00;101020.53;5131888;29;20035;-71
2022/12/21 09:01:41;;;;;;;22.23;15.43;;;;;;;8.80;100.00;101022.94;5132086;29;20063;-71
2022/12/21 09:04:13;;;;;;;25.20;14.68;;;;;;;8.81;100.00;101020.19;5131317;29;20019;-72
2022/12/21 09:06:45;;;;;;;22.77;14.40;;;;;;;8.78;100.00;101009.97;5128011;29;20027;-71
2022/12/21 09:09:16;;;;;;;24.23;16.00;;;;;;;8.80;100.00;101000.25;5131645;29;20062;-71
2022/12/21 09:11:47;;;;;;;29.75;15.52;;;;;;;8.82;100.00;100989.66;5132982;29;20040;-71
2022/12/21 09:14:19;;;;;;;25.50;15.90;;;;;;;8.87;100.00;100996.22;5125219;29;20023;-71
2022/12/21 09:16:50;;;;;;;32.22;15.48;;;;;;;8.92;100.00;101001.09;5130673;29;20028;-71
2022/12/21 09:19:22;;;;;;;29.60;16.63;;;;;;;8.93;100.00;100987.91;5125949;29;20027;-71
2022/12/21 09:21:53;;;;;;;22.35;15.85;;;;;;;8.93;100.00;100997.53;5122597;29;20504;-72
2022/12/21 09:24:24;;;;;;;27.38;15.02;;;;;;;8.95;100.00;100995.66;5124939;29;20165;-72
2022/12/21 09:26:56;;;;;;;24.88;15.13;;;;;;;8.94;100.00;100989.59;5127809;29;20040;-72
2022/12/21 09:29:27;;;;;;;27.58;16.15;;;;;;;9.02;100.00;101005.53;5110687;29;20055;-71
2022/12/21 09:31:58;;;;;;;23.85;15.40;;;;;;;9.08;100.00;101003.38;5128018;29;20027;-72
2022/12/21 09:34:30;;;;;;;28.63;15.52;;;;;;;9.05;100.00;101001.00;5126875;29;20130;-71
2022/12/21 09:37:01;;;;;;;27.50;15.75;;;;;;;9.11;100.00;101008.38;5126719;29;20027;-72
2022/12/21 09:39:32;;;;;;;25.20;14.02;;;;;;;9.15;100.00;101013.25;5107936;29;20028;-72
2022/12/21 09:42:28;;;;;;;29.65;15.27;;;;;;;9.39;100.00;101013.16;5128666;29;20063;-72
2022/12/21 09:45:23;;;;;;;27.13;15.90;;;;;;;9.43;100.00;101019.84;5128618;29;20054;-71
2022/12/21 09:48:05;;;;;;;25.45;14.48;;;;;;;9.35;100.00;101024.81;5125095;29;20048;-71
2022/12/21 09:50:51;;;;;;;24.55;13.90;;;;;;;9.30;100.00;101015.66;5124882;29;20405;-71
2022/12/21 09:53:42;;;;;;;27.23;14.68;;;;;;;9.44;100.00;101026.72;5124296;29;20062;-72
2022/12/21 09:56:21;;;;;;;23.17;14.80;;;;;;;9.35;100.00;101023.97;5113073;29;20031;-71
2022/12/21 09:58:54;;;;;;;27.27;14.75;;;;;;;9.30;100.00;101026.13;5126281;29;20110;-72
2022/12/21 10:01:28;;;;;;;25.80;13.90;;;;;;;9.34;100.00;101028.38;5127294;29;20395;-72
2022/12/21 10:04:13;;;;;;;27.80;15.18;;;;;;;9.47;100.00;101026.50;5123526;29;20081;-72
2022/12/21 10:07:00;;;;;;;23.30;13.68;;;;;;;9.48;100.00;101027.31;5124704;29;20019;-72
2022/12/21 10:09:40;;;;;;;20.10;13.25;;;;;;;9.32;100.00;101035.50;5108887;29;20039;-72
2022/12/21 10:12:50;;;;;;;20.95;12.73;;;;;;;9.52;100.00;101025.31;5104041;29;20035;-71
2022/12/21 10:15:34;;;;;;;25.25;13.35;;;;;;;9.50;100.00;101018.38;5092751;29;20066;-72
2022/12/21 10:18:27;;;;;;;21.42;12.77;;;;;;;9.50;100.00;101033.25;5129953;29;20036;-71
2022/12/21 10:21:20;;;;;;;22.48;12.45;;;;;;;9.60;100.00;101036.00;5125670;29;20059;-72
2022/12/21 10:23:54;;;;;;;21.52;11.98;;;;;;;9.45;100.00;101035.41;5125554;29;20567;-72
2022/12/21 10:26:26;;;;;;;23.63;12.20;;;;;;;9.43;100.00;101035.53;5126612;29;20040;-72
2022/12/21 10:29:00;;;;;;;18.80;12.23;;;;;;;9.35;100.00;101019.56;5127991;29;20422;-72
2022/12/21 10:31:44;;;;;;;20.90;11.45;;;;;;;9.66;100.00;101025.03;5122590;29;20060;-72
2022/12/21 10:34:24;;;;;;;19.88;12.18;;;;;;;9.67;100.00;101029.34;5130200;29;20390;-71
2022/12/21 10:36:59;;;;;;;22.60;12.73;;;;;;;9.57;100.00;101023.16;5127780;29;20031;-72
2022/12/21 10:39:31;;;;;;;22.48;12.80;;;;;;;9.57;100.00;101012.69;5128715;29;20043;-72
2022/12/21 10:42:09;;;;;;;20.08;12.88;;;;;;;9.62;100.00;101014.00;5126954;29;20023;-72
2022/12/21 10:44:41;;;;;;;21.45;12.00;;;;;;;9.54;100.00;101007.69;5130145;29;20052;-72
2022/12/21 10:47:14;;;;;;;23.23;12.82;;;;;;;9.54;100.00;100997.22;5128545;29;20032;-72
2022/12/21 10:50:03;;;;;;;20.20;12.02;;;;;;;9.72;100.00;101001.03;5130706;29;20028;-72
2022/12/21 10:52:40;;;;;;;21.17;11.73;;;;;;;9.67;100.00;100995.34;5127825;29;20039;-72
2022/12/21 10:55:26;;;;;;;21.02;12.07;;;;;;;9.78;100.00;100997.13;5126711;29;20043;-72
2022/12/21 10:58:01;;;;;;;17.23;11.77;;;;;;;9.67;100.00;100996.16;5126663;29;20588;-72
2022/12/21 11:00:47;;;;;;;21.95;12.10;;;;;;;9.58;100.00;100985.56;5128852;29;20485;-72
2022/12/21 11:03:25;;;;;;;22.90;12.45;;;;;;;9.60;100.00;100989.75;5129663;29;20398;-72
2022/12/21 11:05:57;;;;;;;22.08;12.57;;;;;;;9.57;100.00;100976.91;5116409;29;20411;-72
2022/12/21 11:08:31;;;;;;;22.25;13.02;;;;;;;9.59;100.00;100980.25;5134056;29;20090;-72
2022/12/21 11:11:02;;;;;;;21.83;12.77;;;;;;;9.59;100.00;100984.66;5127184;29;20039;-72
2022/12/21 11:13:34;;;;;;;19.88;12.77;;;;;;;9.61;100.00;100983.56;5127745;29;20519;-72
2022/12/21 11:16:09;;;;;;;18.92;11.63;;;;;;;9.60;100.00;100983.69;5131357;29;20040;-72
2022/12/21 11:18:46;;;;;;;19.70;13.40;;;;;;;9.60;100.00;100970.59;5129571;29;20034;-72
2022/12/21 11:21:26;;;;;;;18.73;12.10;;;;;;;9.70;100.00;100971.56;5125656;29;20493;-72
2022/12/21 11:24:02;;;;;;;18.35;12.15;;;;;;;9.64;100.00;100980.69;5128705;29;20023;-72
2022/12/21 11:26:41;;;;;;;19.55;12.82;;;;;;;9.71;100.00;100971.41;5131575;29;20038;-72
2022/12/21 11:29:18;;;;;;;18.00;11.75;;;;;;;9.75;100.00;100972.00;5129887;29;20420;-72
2022/12/21 11:31:54;;;;;;;19.02;12.25;;;;;;;9.69;100.00;100977.72;5126546;29;20035;-72
2022/12/21 11:34:31;;;;;;;21.52;12.73;;;;;;;9.67;100.00;100983.09;5129918;29;20027;-72
2022/12/21 11:37:21;;;;;;;21.48;13.07;;;;;;;9.71;100.00;100984.50;5130506;29;20062;-71
2022/12/21 11:39:56;;;;;;;21.52;13.55;;;;;;;9.76;100.00;100978.91;5128615;29;20032;-72
2022/12/21 11:42:28;;;;;;;19.88;12.27;;;;;;;9.73;100.00;100973.91;5128452;29;20023;-72
2022/12/21 11:45:32;;;;;;;19.38;12.82;;;;;;;10.09;100.00;100971.94;5128685;29;20505;-72
2022/12/21 11:48:18;;;;;;;23.90;14.30;;;;;;;10.02;100.00;100970.75;5070871;29;20047;-72
2022/12/21 11:51:16;;;;;;;25.88;14.25;;;;;;;9.83;100.00;100974.03;5128027;29;20088;-72
2022/12/21 11:54:33;;;;;;;21.30;13.65;;;;;;;10.10;100.00;100974.41;5112532;29;20557;-72
2022/12/21 11:57:23;;;;;;;24.80;14.25;;;;;;;9.95;100.00;100968.63;5132712;29;20032;-72
2022/12/21 12:00:03;;;;;;;20.10;13.60;;;;;;;9.89;100.00;100963.91;5127449;29;20024;-72
2022/12/21 12:02:54;;;;;;;20.90;12.63;;;;;;;9.93;100.00;100964.50;5127444;29;20087;-72